createdAt,value
2023-06-04T00:00:03.228Z,73.3
2023-06-04T00:15:02.681Z,74.5
2023-06-04T00:30:03.139Z,75.1
2023-06-04T00:45:02.633Z,76.0
2023-06-04T01:00:02.996Z,76.7
2023-06-04T01:15:02.631Z,77.5
2023-06-04T01:30:02.904Z,77.9
2023-06-04T01:45:02.304Z,78.5
2023-06-04T02:00:02.765Z,79.2
2023-06-04T02:15:03.218Z,81.4
2023-06-04T02:30:02.645Z,83.1
2023-06-04T02:45:03.059Z,83.2
2023-06-04T03:00:02.643Z,83.7
2023-06-04T03:15:02.989Z,83.9
2023-06-04T03:30:02.404Z,83.9
2023-06-04T03:45:02.841Z,84.3
2023-06-04T04:00:02.301Z,85.0
2023-06-04T04:15:02.707Z,85.6
2023-06-04T04:30:02.207Z,85.8
2023-06-04T04:45:02.679Z,85.1
2023-06-04T05:00:03.034Z,83.9
2023-06-04T05:15:02.669Z,82.5
2023-06-04T05:30:02.916Z,82.4
2023-06-04T05:45:02.352Z,80.6
2023-06-04T06:00:02.800Z,71.9
2023-06-04T06:15:03.240Z,64.4
2023-06-04T06:30:02.711Z,59.8
2023-06-04T06:45:03.137Z,54.2
2023-06-04T07:00:02.693Z,50.0
2023-06-04T07:15:03.028Z,44.8
2023-06-04T07:30:02.471Z,41.2
2023-06-04T07:45:02.891Z,37.7
2023-06-04T08:00:02.333Z,37.9
2023-06-04T08:15:02.774Z,38.3
2023-06-04T08:30:02.191Z,40.3
2023-06-04T08:45:02.709Z,34.5
2023-06-04T09:00:03.053Z,33.2
2023-06-04T09:15:02.745Z,32.0
2023-06-04T09:30:01.949Z,28.2
2023-06-04T09:45:02.421Z,27.1
2023-06-04T10:00:02.857Z,29.7
2023-06-04T10:15:02.267Z,30.1
2023-06-04T10:30:02.722Z,29.3
2023-06-04T10:45:03.161Z,28.7
2023-06-04T11:00:02.746Z,30.8
2023-06-04T11:15:03.036Z,28.6
2023-06-04T11:30:02.458Z,28.1
2023-06-04T11:45:02.932Z,30.5
2023-06-04T12:00:02.378Z,31.2
2023-06-04T12:15:02.882Z,30.9
2023-06-04T12:30:02.288Z,29.7
2023-06-04T12:45:02.771Z,27.6
2023-06-04T13:00:03.132Z,29.3
2023-06-04T13:15:02.764Z,30.6
2023-06-04T13:30:02.031Z,30.0
2023-06-04T13:45:02.436Z,29.7
2023-06-04T14:00:02.857Z,27.6
2023-06-04T14:15:02.298Z,29.6
2023-06-04T14:30:02.781Z,27.4
2023-06-04T14:45:03.172Z,29.7
2023-06-04T15:00:02.793Z,28.2
2023-06-04T15:15:03.078Z,27.7
2023-06-04T15:30:02.508Z,30.0
2023-06-04T15:45:02.940Z,28.9
2023-06-04T16:00:02.389Z,29.6
2023-06-04T16:15:02.825Z,30.8
2023-06-04T16:30:02.240Z,32.4
2023-06-04T16:45:02.780Z,31.8
2023-06-04T17:00:17.087Z,33.3
2023-06-04T17:15:02.801Z,33.1
2023-06-04T17:30:02.008Z,34.6
2023-06-04T17:45:02.506Z,37.8
2023-06-04T18:00:02.939Z,39.8
2023-06-04T18:15:02.352Z,47.0
2023-06-04T18:30:02.818Z,49.4
2023-06-04T18:45:02.239Z,51.6
2023-06-04T19:00:02.828Z,53.5
2023-06-04T19:15:03.094Z,55.1
2023-06-04T19:30:02.591Z,57.0
2023-06-04T19:45:02.996Z,58.3
2023-06-04T20:00:02.419Z,58.2
2023-06-04T20:15:02.858Z,59.6
2023-06-04T20:30:02.314Z,62.6
2023-06-04T20:45:02.820Z,65.8
2023-06-04T21:00:02.191Z,67.3
2023-06-04T21:15:02.816Z,69.7
2023-06-04T21:30:02.184Z,72.1
2023-06-04T21:45:02.526Z,74.9
2023-06-04T22:15:03.428Z,76.4
2023-06-04T22:30:02.856Z,77.4
2023-06-04T22:45:02.304Z,79.5
2023-06-04T23:00:02.924Z,80.3
2023-06-04T23:15:02.189Z,80.5
2023-06-04T23:30:02.911Z,81.7
2023-06-04T23:45:02.085Z,85.2
